Time;durP1;ratioP1;P1;durP2;ratioP2;P2;SDS_P1;SDS_P2;PMS_P1;PMS_P2;Temp;Humidity;BMP_temperature;BMP_pressure;BME280_temperature;BME280_humidity;BME280_pressure;Samples;Min_cycle;Max_cycle;Signal;HPM_P1;HPM_P2
2023/10/15 00:00:16;;;;;;;11.23;1.52;;;;;;;;;;5084792;28;20055;-59
2023/10/15 00:02:43;;;;;;;8.98;1.23;;;;;;;;;;5071912;28;20162;-59
2023/10/15 00:05:13;;;;;;;9.45;1.85;;;;;;;;;;5089731;28;20438;-59
2023/10/15 00:07:39;;;;;;;8.65;2.83;;;;;;;;;;5092173;28;20093;-59
2023/10/15 00:10:10;;;;;;;8.50;1.45;;;;;;;;;;5082570;28;20039;-59
2023/10/15 00:12:37;;;;;;;11.68;1.92;;;;;;;;;;5076010;28;20037;-59
2023/10/15 00:15:05;;;;;;;5.53;1.33;;;;;;;;;;5082909;28;20119;-59
2023/10/15 00:17:31;;;;;;;11.25;2.20;;;;;;;;;;5092118;28;20536;-59
2023/10/15 00:19:57;;;;;;;12.82;1.50;;;;;;;;;;5082149;28;20460;-59
2023/10/15 00:22:23;;;;;;;8.13;1.48;;;;;;;;;;5079590;28;20100;-59
2023/10/15 00:24:50;;;;;;;10.70;1.65;;;;;;;;;;5080136;28;20041;-59
2023/10/15 00:27:17;;;;;;;8.23;1.65;;;;;;;;;;5074780;28;20396;-59
2023/10/15 00:29:43;;;;;;;10.93;2.00;;;;;;;;;;5084691;28;20057;-59
2023/10/15 00:32:09;;;;;;;12.38;1.48;;;;;;;;;;5078626;28;20051;-59
2023/10/15 00:34:36;;;;;;;7.13;1.42;;;;;;;;;;5091054;28;20039;-59
2023/10/15 00:37:03;;;;;;;9.27;1.65;;;;;;;;;;5090173;28;20126;-59
2023/10/15 00:39:30;;;;;;;6.50;1.65;;;;;;;;;;5084936;28;20044;-59
2023/10/15 00:41:56;;;;;;;7.10;1.35;;;;;;;;;;5086803;28;20353;-59
2023/10/15 00:44:22;;;;;;;12.85;1.80;;;;;;;;;;5074471;28;20097;-59
2023/10/15 00:46:55;;;;;;;11.50;1.60;;;;;;;;;;5091651;28;20070;-59
2023/10/15 00:49:25;;;;;;;7.87;1.53;;;;;;;;;;5078965;28;20538;-59
2023/10/15 00:51:51;;;;;;;11.82;1.83;;;;;;;;;;5060552;28;20329;-59
2023/10/15 00:54:17;;;;;;;11.05;2.00;;;;;;;;;;5082863;28;20081;-59
2023/10/15 00:56:45;;;;;;;8.43;1.30;;;;;;;;;;5091254;28;20083;-59
2023/10/15 00:59:18;;;;;;;11.02;1.30;;;;;;;;;;5080822;28;20037;-59
2023/10/15 01:02:02;;;;;;;5.22;1.73;;;;;;;;;;5072957;28;20039;-59
2023/10/15 01:04:31;;;;;;;;;;;;;;;;;;5083255;28;20502;-59
2023/10/15 01:07:13;;;;;;;22.02;1.95;;;;;;;;;;5082536;28;20361;-59
2023/10/15 01:09:40;;;;;;;5.90;1.35;;;;;;;;;;5070463;28;20036;-59
2023/10/15 01:12:30;;;;;;;8.32;1.25;;;;;;;;;;5081214;28;20036;-59
2023/10/15 01:14:57;;;;;;;4.80;1.05;;;;;;;;;;5082977;28;20055;-59
2023/10/15 01:17:26;;;;;;;4.03;1.02;;;;;;;;;;5069376;28;20040;-59
2023/10/15 01:19:53;;;;;;;5.20;1.05;;;;;;;;;;5070377;28;20060;-59
2023/10/15 01:22:21;;;;;;;7.95;1.25;;;;;;;;;;5076706;28;20115;-59
2023/10/15 01:24:50;;;;;;;4.88;1.17;;;;;;;;;;5076165;28;20040;-59
2023/10/15 01:27:26;;;;;;;6.65;2.38;;;;;;;;;;5083567;28;20045;-59
2023/10/15 01:29:55;;;;;;;11.63;1.25;;;;;;;;;;5072158;28;20457;-59
2023/10/15 01:32:25;;;;;;;9.15;1.27;;;;;;;;;;5082053;28;20036;-59
2023/10/15 01:34:52;;;;;;;7.93;1.27;;;;;;;;;;5071919;28;20460;-59
2023/10/15 01:39:49;;;;;;;13.32;2.05;;;;;;;;;;5091042;28;20131;-59
2023/10/15 01:48:16;;;;;;;10.65;1.67;;;;;;;;;;5062740;28;20047;-59
2023/10/15 01:50:49;;;;;;;8.80;1.65;;;;;;;;;;5089982;28;20052;-59
2023/10/15 01:53:15;;;;;;;8.82;1.98;;;;;;;;;;5081038;28;20080;-59
2023/10/15 01:55:54;;;;;;;7.85;1.48;;;;;;;;;;5078984;28;20056;-59
2023/10/15 01:58:24;;;;;;;17.77;2.17;;;;;;;;;;5083874;28;20124;-59
2023/10/15 02:00:51;;;;;;;7.25;2.35;;;;;;;;;;5070608;28;20067;-59
2023/10/15 02:03:17;;;;;;;11.02;2.13;;;;;;;;;;5069528;28;20400;-59
2023/10/15 02:05:46;;;;;;;8.75;1.40;;;;;;;;;;5067468;28;20131;-59
2023/10/15 02:08:13;;;;;;;5.85;0.80;;;;;;;;;;5069711;28;20491;-59
2023/10/15 02:10:46;;;;;;;4.97;1.00;;;;;;;;;;5069340;28;20093;-59
2023/10/15 02:13:12;;;;;;;5.53;0.88;;;;;;;;;;5067062;28;20048;-59
2023/10/15 02:15:40;;;;;;;3.63;0.60;;;;;;;;;;5070478;28;20060;-59
2023/10/15 02:18:19;;;;;;;3.78;0.80;;;;;;;;;;5074271;28;20044;-59
2023/10/15 02:23:20;;;;;;;4.32;0.55;;;;;;;;;;5073624;28;20041;-59
2023/10/15 02:25:47;;;;;;;6.05;0.70;;;;;;;;;;5071121;28;20056;-59
2023/10/15 02:28:16;;;;;;;3.40;0.70;;;;;;;;;;5073124;28;20040;-60
2023/10/15 02:30:46;;;;;;;2.90;0.60;;;;;;;;;;5073254;28;20391;-59
2023/10/15 02:33:16;;;;;;;5.30;0.93;;;;;;;;;;5073096;28;20053;-59
2023/10/15 02:35:46;;;;;;;2.60;0.60;;;;;;;;;;5073041;28;20110;-59
2023/10/15 02:38:12;;;;;;;2.88;0.70;;;;;;;;;;5072469;28;20059;-59
2023/10/15 02:43:26;;;;;;;12.75;1.15;;;;;;;;;;5070963;28;20067;-59
2023/10/15 02:45:53;;;;;;;6.07;0.80;;;;;;;;;;5078348;28;20051;-59
2023/10/15 02:48:22;;;;;;;6.70;1.08;;;;;;;;;;5085032;28;20097;-59
2023/10/15 02:51:00;;;;;;;3.72;0.80;;;;;;;;;;5072038;28;20046;-59
2023/10/15 02:53:28;;;;;;;3.55;0.73;;;;;;;;;;5078335;28;20403;-59
2023/10/15 02:55:58;;;;;;;6.47;0.90;;;;;;;;;;5072837;28;20168;-59
2023/10/15 02:58:28;;;;;;;3.25;0.50;;;;;;;;;;5088109;28;20105;-59
2023/10/15 03:01:06;;;;;;;7.82;1.42;;;;;;;;;;5076616;28;20124;-59
2023/10/15 03:03:34;;;;;;;6.85;0.82;;;;;;;;;;5076102;28;20052;-59
2023/10/15 03:06:01;;;;;;;5.30;1.10;;;;;;;;;;5085919;28;20386;-59
2023/10/15 03:08:35;;;;;;;4.70;0.88;;;;;;;;;;5086757;28;20032;-59
2023/10/15 03:11:12;;;;;;;5.20;1.02;;;;;;;;;;5073307;28;20481;-59
2023/10/15 03:13:54;;;;;;;6.95;1.00;;;;;;;;;;5071906;28;20048;-59
2023/10/15 03:16:26;;;;;;;6.22;0.85;;;;;;;;;;5071697;28;20558;-59
2023/10/15 03:18:56;;;;;;;9.13;1.40;;;;;;;;;;5073058;28;20524;-59
2023/10/15 03:21:25;;;;;;;5.68;1.30;;;;;;;;;;5072261;28;20062;-59
2023/10/15 03:23:55;;;;;;;17.20;0.93;;;;;;;;;;5068895;28;20130;-59
2023/10/15 03:26:22;;;;;;;10.38;1.27;;;;;;;;;;5073046;28;20447;-59
2023/10/15 03:28:51;;;;;;;9.57;1.73;;;;;;;;;;5071866;28;20053;-59
2023/10/15 03:31:20;;;;;;;10.77;1.40;;;;;;;;;;5072367;28;20044;-59
2023/10/15 03:34:35;;;;;;;12.50;1.60;;;;;;;;;;5064279;28;20417;-59
2023/10/15 03:37:07;;;;;;;9.23;1.27;;;;;;;;;;5064498;28;20124;-59
2023/10/15 03:44:54;;;;;;;5.30;0.75;;;;;;;;;;5083395;28;20040;-59
2023/10/15 03:47:22;;;;;;;8.48;1.10;;;;;;;;;;5074892;28;20125;-59
2023/10/15 03:49:51;;;;;;;4.20;0.77;;;;;;;;;;5073510;28;20032;-59
2023/10/15 03:52:20;;;;;;;8.90;1.20;;;;;;;;;;5076980;28;20085;-59
2023/10/15 03:54:50;;;;;;;5.47;0.80;;;;;;;;;;5080685;28;20059;-59
2023/10/15 03:57:26;;;;;;;4.63;0.68;;;;;;;;;;5083707;28;20052;-59
2023/10/15 03:59:52;;;;;;;8.32;1.40;;;;;;;;;;5088017;28;20052;-59
2023/10/15 04:02:23;;;;;;;7.57;1.73;;;;;;;;;;5082400;28;20032;-59
2023/10/15 04:05:08;;;;;;;7.72;1.10;;;;;;;;;;5070176;28;20086;-59
2023/10/15 04:07:47;;;;;;;7.90;1.02;;;;;;;;;;5071255;28;20137;-59
2023/10/15 04:10:14;;;;;;;10.55;1.00;;;;;;;;;;5067477;28;20494;-59
2023/10/15 04:12:43;;;;;;;11.68;1.35;;;;;;;;;;5091574;28;20044;-59
2023/10/15 04:15:16;;;;;;;7.70;1.50;;;;;;;;;;5092202;28;20491;-59
2023/10/15 04:17:48;;;;;;;17.02;1.48;;;;;;;;;;5092266;28;20085;-59
2023/10/15 04:23:14;;;;;;;12.27;2.00;;;;;;;;;;5054584;28;20372;-59
2023/10/15 04:25:40;;;;;;;21.63;3.35;;;;;;;;;;5078999;28;20115;-59
2023/10/15 04:28:14;;;;;;;5.28;0.95;;;;;;;;;;5075280;28;20488;-59
2023/10/15 04:30:40;;;;;;;11.43;1.27;;;;;;;;;;5059032;28;20040;-59
2023/10/15 04:33:13;;;;;;;12.45;2.15;;;;;;;;;;5084518;28;20084;-59
2023/10/15 04:35:42;;;;;;;13.20;1.25;;;;;;;;;;5082005;28;20058;-59
2023/10/15 04:38:08;;;;;;;7.45;1.10;;;;;;;;;;5075547;28;20452;-59
2023/10/15 04:40:48;;;;;;;9.43;1.48;;;;;;;;;;5069485;28;20112;-59
2023/10/15 04:43:14;;;;;;;11.40;1.17;;;;;;;;;;5071500;28;20556;-59
2023/10/15 04:45:44;;;;;;;7.90;1.35;;;;;;;;;;5082943;28;20123;-59
2023/10/15 04:48:14;;;;;;;9.55;1.13;;;;;;;;;;5080116;28;20040;-59
2023/10/15 04:50:43;;;;;;;6.00;1.08;;;;;;;;;;5064509;28;20044;-59
2023/10/15 04:53:13;;;;;;;4.72;0.98;;;;;;;;;;5063868;28;20536;-59
2023/10/15 04:55:46;;;;;;;5.85;1.23;;;;;;;;;;5064642;28;20734;-59
2023/10/15 04:58:12;;;;;;;10.27;1.17;;;;;;;;;;5064816;28;20066;-59
2023/10/15 05:00:41;;;;;;;9.32;1.52;;;;;;;;;;5067942;28;20044;-59
2023/10/15 05:03:09;;;;;;;6.78;1.35;;;;;;;;;;5067514;28;20037;-59
2023/10/15 05:05:35;;;;;;;17.70;2.30;;;;;;;;;;5067371;28;20099;-60
2023/10/15 05:08:01;;;;;;;7.95;1.15;;;;;;;;;;5069255;28;20028;-60
2023/10/15 05:10:31;;;;;;;7.50;1.40;;;;;;;;;;5070118;28;20048;-60
2023/10/15 05:12:59;;;;;;;6.72;1.00;;;;;;;;;;5069252;28;20448;-60
2023/10/15 05:15:25;;;;;;;4.72;1.00;;;;;;;;;;5074856;28;20480;-60
2023/10/15 05:17:52;;;;;;;9.18;1.30;;;;;;;;;;5069947;28;20087;-60
2023/10/15 05:20:20;;;;;;;9.13;0.90;;;;;;;;;;5069782;28;20070;-60
2023/10/15 05:22:47;;;;;;;8.52;1.15;;;;;;;;;;5066803;28;20052;-60
2023/10/15 05:25:20;;;;;;;4.78;0.82;;;;;;;;;;5063755;28;20372;-59
2023/10/15 05:27:49;;;;;;;7.70;1.10;;;;;;;;;;5068593;28;20044;-60
2023/10/15 05:30:16;;;;;;;6.63;0.95;;;;;;;;;;5069361;28;20334;-60
2023/10/15 05:32:45;;;;;;;9.38;1.00;;;;;;;;;;5068504;28;20067;-60
2023/10/15 05:35:11;;;;;;;8.95;1.10;;;;;;;;;;5069488;28;20048;-59
2023/10/15 05:37:41;;;;;;;10.70;1.85;;;;;;;;;;5068919;28;20039;-60
2023/10/15 05:40:08;;;;;;;8.27;1.33;;;;;;;;;;5070690;28;20178;-60
2023/10/15 05:42:34;;;;;;;8.35;1.13;;;;;;;;;;5065935;28;20048;-60
2023/10/15 05:45:01;;;;;;;9.48;1.10;;;;;;;;;;5075944;28;20032;-60
2023/10/15 05:47:28;;;;;;;7.78;1.38;;;;;;;;;;5072902;28;20044;-60
2023/10/15 05:49:55;;;;;;;5.40;1.15;;;;;;;;;;5084146;28;20139;-60
2023/10/15 05:52:22;;;;;;;6.95;1.52;;;;;;;;;;5097018;28;20059;-60
2023/10/15 05:54:51;;;;;;;5.22;1.90;;;;;;;;;;5083036;28;20044;-60
2023/10/15 05:57:17;;;;;;;12.40;1.67;;;;;;;;;;5096690;28;20118;-60
2023/10/15 05:59:44;;;;;;;10.45;1.27;;;;;;;;;;5095702;28;20085;-59
2023/10/15 06:02:10;;;;;;;11.63;1.48;;;;;;;;;;5077739;28;20047;-59
2023/10/15 06:04:37;;;;;;;7.45;1.23;;;;;;;;;;5076209;28;20076;-59
2023/10/15 06:07:07;;;;;;;4.60;0.95;;;;;;;;;;5094281;28;20097;-59
2023/10/15 06:09:34;;;;;;;6.35;1.60;;;;;;;;;;5097475;28;20035;-60
2023/10/15 06:12:01;;;;;;;4.03;1.25;;;;;;;;;;5081945;28;20040;-59
2023/10/15 06:14:30;;;;;;;7.22;1.10;;;;;;;;;;5085862;28;20348;-60
2023/10/15 06:16:59;;;;;;;5.20;0.80;;;;;;;;;;5094415;28;20091;-60
2023/10/15 06:19:26;;;;;;;7.20;1.17;;;;;;;;;;5085842;28;20044;-60
2023/10/15 06:21:52;;;;;;;4.20;0.70;;;;;;;;;;5092814;28;20127;-60
2023/10/15 06:24:18;;;;;;;4.65;0.85;;;;;;;;;;5096022;28;20054;-60
2023/10/15 06:26:45;;;;;;;5.00;0.85;;;;;;;;;;5096458;28;20127;-60
2023/10/15 06:29:13;;;;;;;5.13;1.15;;;;;;;;;;5097030;28;20454;-63
2023/10/15 06:31:39;;;;;;;7.00;1.25;;;;;;;;;;5083347;28;20061;-60
2023/10/15 06:34:08;;;;;;;4.78;0.73;;;;;;;;;;5088603;28;20037;-60
2023/10/15 06:36:36;;;;;;;7.25;0.90;;;;;;;;;;5087777;28;20080;-60
2023/10/15 06:39:03;;;;;;;5.65;0.80;;;;;;;;;;5096185;28;20080;-60
2023/10/15 06:41:29;;;;;;;6.53;0.90;;;;;;;;;;5094616;28;20075;-60
2023/10/15 06:43:56;;;;;;;13.13;1.58;;;;;;;;;;5087758;28;20044;-60
2023/10/15 06:46:23;;;;;;;8.88;1.38;;;;;;;;;;5076152;28;20083;-66
2023/10/15 06:48:51;;;;;;;9.50;1.00;;;;;;;;;;5072145;28;20045;-61
2023/10/15 06:51:17;;;;;;;7.55;0.95;;;;;;;;;;5076529;28;20492;-61
2023/10/15 06:53:44;;;;;;;5.53;1.38;;;;;;;;;;5075016;28;20044;-60
2023/10/15 06:56:10;;;;;;;10.38;1.60;;;;;;;;;;5085493;28;20036;-60
2023/10/15 06:58:36;;;;;;;8.77;1.20;;;;;;;;;;5081435;28;20039;-60
2023/10/15 07:01:04;;;;;;;8.13;1.38;;;;;;;;;;5087015;28;20047;-60
2023/10/15 07:03:30;;;;;;;6.38;0.93;;;;;;;;;;5078568;28;20044;-60
2023/10/15 07:05:56;;;;;;;6.80;0.98;;;;;;;;;;5080228;28;20048;-60
2023/10/15 07:08:22;;;;;;;5.47;0.80;;;;;;;;;;5065070;28;20045;-60
2023/10/15 07:10:49;;;;;;;4.95;0.90;;;;;;;;;;5090591;28;20485;-60
2023/10/15 07:13:17;;;;;;;4.82;0.90;;;;;;;;;;5088231;28;20425;-61
2023/10/15 07:15:45;;;;;;;5.28;1.42;;;;;;;;;;5079236;28;20421;-61
2023/10/15 07:18:12;;;;;;;4.53;0.88;;;;;;;;;;5071059;28;20123;-61
2023/10/15 07:20:41;;;;;;;5.68;0.80;;;;;;;;;;5081165;28;20043;-65
2023/10/15 07:23:07;;;;;;;3.47;0.75;;;;;;;;;;5084355;28;20148;-69
2023/10/15 07:25:33;;;;;;;3.92;0.80;;;;;;;;;;5082510;28;20040;-69
2023/10/15 07:28:00;;;;;;;2.38;0.63;;;;;;;;;;5078134;28;20044;-72
2023/10/15 07:30:27;;;;;;;4.13;1.00;;;;;;;;;;5081944;28;20667;-70
2023/10/15 07:32:57;;;;;;;7.22;0.80;;;;;;;;;;5090224;28;20392;-67
2023/10/15 07:35:25;;;;;;;10.43;1.20;;;;;;;;;;5075791;28;20108;-60
2023/10/15 07:37:51;;;;;;;4.20;0.98;;;;;;;;;;5093266;28;20067;-60
2023/10/15 07:40:18;;;;;;;8.13;1.13;;;;;;;;;;5082731;28;20041;-60
2023/10/15 07:42:45;;;;;;;9.38;1.10;;;;;;;;;;5087039;28;20125;-60
2023/10/15 07:45:12;;;;;;;11.65;1.70;;;;;;;;;;5086352;28;20056;-60
2023/10/15 07:47:38;;;;;;;6.45;1.23;;;;;;;;;;5064770;28;20041;-60
2023/10/15 07:50:08;;;;;;;6.05;0.95;;;;;;;;;;5072080;28;20044;-60
2023/10/15 07:52:35;;;;;;;7.43;1.52;;;;;;;;;;5078947;28;20404;-60
2023/10/15 07:55:01;;;;;;;8.93;1.42;;;;;;;;;;5085402;28;20058;-60
2023/10/15 07:57:28;;;;;;;6.18;1.17;;;;;;;;;;5076344;28;20043;-60
2023/10/15 07:59:57;;;;;;;6.15;1.10;;;;;;;;;;5073614;28;21763;-60
2023/10/15 08:02:23;;;;;;;4.13;0.88;;;;;;;;;;5079975;28;20092;-62
2023/10/15 08:04:53;;;;;;;5.18;1.00;;;;;;;;;;5076984;28;20120;-60
2023/10/15 08:07:19;;;;;;;6.47;1.17;;;;;;;;;;5077206;28;20101;-72
2023/10/15 08:09:46;;;;;;;10.52;1.58;;;;;;;;;;5073584;28;20369;-65
2023/10/15 08:12:12;;;;;;;6.07;1.13;;;;;;;;;;5075101;28;20043;-64
2023/10/15 08:14:38;;;;;;;9.35;1.35;;;;;;;;;;5082043;28;20108;-65
2023/10/15 08:17:04;;;;;;;8.10;0.90;;;;;;;;;;5081527;28;20483;-64
2023/10/15 08:19:31;;;;;;;7.63;1.00;;;;;;;;;;5082704;28;20039;-64
2023/10/15 08:21:59;;;;;;;5.68;1.17;;;;;;;;;;5072945;28;20329;-65
2023/10/15 08:24:25;;;;;;;6.10;0.90;;;;;;;;;;5081045;28;20055;-64
2023/10/15 08:26:51;;;;;;;6.22;0.95;;;;;;;;;;5082496;28;20488;-63
2023/10/15 08:29:19;;;;;;;2.95;0.75;;;;;;;;;;5070965;28;20059;-61
2023/10/15 08:31:49;;;;;;;4.45;1.00;;;;;;;;;;5064415;28;20434;-64
2023/10/15 08:34:15;;;;;;;5.45;1.10;;;;;;;;;;5074641;28;20514;-65
2023/10/15 08:36:42;;;;;;;6.55;1.00;;;;;;;;;;5082571;28;20044;-61
2023/10/15 08:39:08;;;;;;;10.70;1.38;;;;;;;;;;5087901;28;20043;-61
2023/10/15 08:41:38;;;;;;;10.63;1.23;;;;;;;;;;5082973;28;20040;-61
2023/10/15 08:44:06;;;;;;;8.60;0.90;;;;;;;;;;5082818;28;20039;-61
2023/10/15 08:46:36;;;;;;;7.75;1.55;;;;;;;;;;5089657;28;20039;-61
2023/10/15 08:49:04;;;;;;;12.75;1.65;;;;;;;;;;5079346;28;20051;-62
2023/10/15 08:51:34;;;;;;;13.32;1.40;;;;;;;;;;5076283;28;20090;-63
2023/10/15 08:54:02;;;;;;;7.18;1.15;;;;;;;;;;5066811;28;20040;-63
2023/10/15 08:56:30;;;;;;;6.75;1.00;;;;;;;;;;5076151;28;20110;-63
2023/10/15 08:58:57;;;;;;;9.50;1.58;;;;;;;;;;5067821;28;20097;-62
2023/10/15 09:01:23;;;;;;;10.60;1.50;;;;;;;;;;5081182;28;20046;-63
2023/10/15 09:03:53;;;;;;;6.88;1.73;;;;;;;;;;5073536;28;20478;-63
2023/10/15 09:06:20;;;;;;;15.75;3.08;;;;;;;;;;5065871;28;20090;-62
2023/10/15 09:08:46;;;;;;;11.85;2.35;;;;;;;;;;5060093;28;20102;-62
2023/10/15 09:11:12;;;;;;;7.55;1.48;;;;;;;;;;5061298;28;20115;-61
2023/10/15 09:13:39;;;;;;;11.25;1.67;;;;;;;;;;5062243;28;20101;-61
2023/10/15 09:16:07;;;;;;;11.02;1.27;;;;;;;;;;5062625;28;20048;-61
2023/10/15 09:18:36;;;;;;;7.47;1.35;;;;;;;;;;5061515;28;20064;-61
2023/10/15 09:21:06;;;;;;;8.82;1.10;;;;;;;;;;5062606;28;20041;-61
2023/10/15 09:23:36;;;;;;;7.47;0.90;;;;;;;;;;5060866;28;20060;-61
2023/10/15 09:26:03;;;;;;;7.60;1.38;;;;;;;;;;5062559;28;20053;-60
2023/10/15 09:28:30;;;;;;;9.25;1.83;;;;;;;;;;5062352;28;20107;-61
2023/10/15 09:31:02;;;;;;;8.85;1.48;;;;;;;;;;5060978;28;20064;-61
2023/10/15 09:33:29;;;;;;;9.32;1.48;;;;;;;;;;5060638;28;20049;-60
2023/10/15 09:35:56;;;;;;;7.55;1.13;;;;;;;;;;5060966;28;20063;-60
2023/10/15 09:38:22;;;;;;;10.43;1.58;;;;;;;;;;5060197;28;20153;-61
2023/10/15 09:40:48;;;;;;;11.30;2.03;;;;;;;;;;5062403;28;20045;-61
2023/10/15 09:43:15;;;;;;;9.30;1.92;;;;;;;;;;5058203;28;20123;-60
2023/10/15 09:45:45;;;;;;;7.40;1.40;;;;;;;;;;5060549;28;20048;-61
2023/10/15 09:48:11;;;;;;;7.72;1.50;;;;;;;;;;5062422;28;20094;-61
2023/10/15 09:50:41;;;;;;;8.93;1.92;;;;;;;;;;5060856;28;20076;-60
2023/10/15 09:53:11;;;;;;;7.93;1.40;;;;;;;;;;5061492;28;20479;-61
2023/10/15 09:55:38;;;;;;;7.95;0.98;;;;;;;;;;5062884;28;20048;-61
2023/10/15 09:58:05;;;;;;;7.60;1.00;;;;;;;;;;5060161;28;20077;-61
2023/10/15 10:03:37;;;;;;;7.40;0.98;;;;;;;;;;5059492;28;20735;-61
2023/10/15 10:06:18;;;;;;;5.43;1.08;;;;;;;;;;5059409;28;20089;-61
2023/10/15 10:08:50;;;;;;;6.47;1.15;;;;;;;;;;5061450;28;20439;-61
2023/10/15 10:11:25;;;;;;;5.05;0.93;;;;;;;;;;5059938;28;20464;-60
2023/10/15 10:14:03;;;;;;;4.97;0.80;;;;;;;;;;5061420;28;21192;-61
2023/10/15 10:16:30;;;;;;;4.38;1.00;;;;;;;;;;5060427;28;20060;-60
2023/10/15 10:18:57;;;;;;;8.70;1.65;;;;;;;;;;5059583;28;20045;-60
2023/10/15 10:21:28;;;;;;;6.82;0.93;;;;;;;;;;5061275;28;20033;-60
2023/10/15 10:23:54;;;;;;;6.32;1.25;;;;;;;;;;5060150;28;20060;-61
2023/10/15 10:26:20;;;;;;;6.50;1.48;;;;;;;;;;5061768;28;20075;-61
2023/10/15 10:28:47;;;;;;;10.75;1.60;;;;;;;;;;5061337;28;20056;-60
2023/10/15 10:31:14;;;;;;;9.52;1.15;;;;;;;;;;5059992;28;20078;-60
2023/10/15 10:33:40;;;;;;;8.63;1.40;;;;;;;;;;5062025;28;20583;-60
2023/10/15 10:36:27;;;;;;;6.00;1.38;;;;;;;;;;5061966;28;20048;-60
2023/10/15 10:38:56;;;;;;;8.55;1.50;;;;;;;;;;5065476;28;20049;-60
2023/10/15 10:41:45;;;;;;;14.40;1.98;;;;;;;;;;5063583;28;20048;-60
2023/10/15 10:44:24;;;;;;;9.75;1.35;;;;;;;;;;5064052;28;20037;-60
2023/10/15 10:46:56;;;;;;;8.57;1.25;;;;;;;;;;5063226;28;20400;-60
2023/10/15 10:49:31;;;;;;;9.60;1.67;;;;;;;;;;5063950;28;20036;-60
2023/10/15 10:52:29;;;;;;;10.68;1.35;;;;;;;;;;5064003;28;20055;-60
2023/10/15 10:55:19;;;;;;;7.72;1.88;;;;;;;;;;5045559;28;20560;-60
2023/10/15 10:57:45;;;;;;;7.50;1.52;;;;;;;;;;5059965;28;20036;-60
2023/10/15 11:00:15;;;;;;;5.15;1.17;;;;;;;;;;5062045;28;20041;-60
2023/10/15 11:02:42;;;;;;;10.00;1.13;;;;;;;;;;5064376;28;20482;-60
2023/10/15 11:05:11;;;;;;;7.45;1.10;;;;;;;;;;5064439;28;20072;-60
2023/10/15 11:07:39;;;;;;;5.85;1.27;;;;;;;;;;5062575;28;20060;-61
2023/10/15 11:10:05;;;;;;;7.70;1.17;;;;;;;;;;5065345;28;20418;-61
2023/10/15 11:12:32;;;;;;;7.47;1.40;;;;;;;;;;5063603;28;20037;-61
2023/10/15 11:14:58;;;;;;;5.03;0.90;;;;;;;;;;5061706;28;20404;-61
2023/10/15 11:17:25;;;;;;;6.93;1.02;;;;;;;;;;5065869;28;20052;-61
2023/10/15 11:19:51;;;;;;;6.82;1.30;;;;;;;;;;5063472;28;20485;-61
2023/10/15 11:22:17;;;;;;;7.10;1.23;;;;;;;;;;5064819;28;20039;-61
2023/10/15 11:24:46;;;;;;;7.38;1.20;;;;;;;;;;5063295;28;20041;-61
2023/10/15 11:27:13;;;;;;;7.50;1.50;;;;;;;;;;5063043;28;20040;-61
2023/10/15 11:29:39;;;;;;;7.70;1.20;;;;;;;;;;5060922;28;20053;-61
2023/10/15 11:32:11;;;;;;;5.90;1.25;;;;;;;;;;5063243;28;20493;-61
2023/10/15 11:34:39;;;;;;;5.65;0.93;;;;;;;;;;5064473;28;20052;-61
2023/10/15 11:37:09;;;;;;;7.85;1.20;;;;;;;;;;5065524;28;20060;-61
2023/10/15 11:39:42;;;;;;;6.10;1.40;;;;;;;;;;5064205;28;20455;-61
2023/10/15 11:42:08;;;;;;;5.63;1.33;;;;;;;;;;5064354;28;20178;-61
2023/10/15 11:44:37;;;;;;;3.55;0.60;;;;;;;;;;5074298;28;20052;-61
2023/10/15 11:47:11;;;;;;;4.22;0.95;;;;;;;;;;5066434;28;20048;-61
2023/10/15 11:49:46;;;;;;;4.03;0.85;;;;;;;;;;5072486;28;20158;-61
2023/10/15 11:52:14;;;;;;;2.28;0.65;;;;;;;;;;5075128;28;20417;-68
2023/10/15 11:54:49;;;;;;;2.22;0.60;;;;;;;;;;5067396;28;20488;-60
2023/10/15 11:57:20;;;;;;;0.77;0.65;;;;;;;;;;5092413;28;20048;-60
2023/10/15 11:59:48;;;;;;;3.30;0.80;;;;;;;;;;5085830;28;20127;-60
2023/10/15 12:02:14;;;;;;;4.57;0.98;;;;;;;;;;5069917;28;20480;-62
2023/10/15 12:04:41;;;;;;;5.13;1.15;;;;;;;;;;5085656;28;20118;-60
2023/10/15 12:07:15;;;;;;;5.50;1.10;;;;;;;;;;5082239;28;20056;-60
2023/10/15 12:09:47;;;;;;;6.18;0.95;;;;;;;;;;5078343;28;20522;-60
2023/10/15 12:12:13;;;;;;;4.70;1.08;;;;;;;;;;5064076;28;20534;-61
2023/10/15 12:14:40;;;;;;;5.47;1.05;;;;;;;;;;5081957;28;20411;-60
2023/10/15 12:17:06;;;;;;;5.97;1.10;;;;;;;;;;5089622;28;20451;-60
2023/10/15 12:19:33;;;;;;;5.80;1.10;;;;;;;;;;5090671;28;20399;-61
2023/10/15 12:21:59;;;;;;;10.60;1.40;;;;;;;;;;5092176;28;20044;-61
2023/10/15 12:24:26;;;;;;;5.78;1.20;;;;;;;;;;5079700;28;20446;-60
2023/10/15 12:26:52;;;;;;;10.35;1.40;;;;;;;;;;5071499;28;20064;-61
2023/10/15 12:29:28;;;;;;;4.95;1.00;;;;;;;;;;5078371;28;20044;-60
2023/10/15 12:31:57;;;;;;;4.78;0.88;;;;;;;;;;5080306;28;20052;-61
2023/10/15 12:34:27;;;;;;;5.88;0.90;;;;;;;;;;5072998;28;20444;-60
2023/10/15 12:36:53;;;;;;;6.25;1.60;;;;;;;;;;5080514;28;20455;-60
2023/10/15 12:39:26;;;;;;;4.40;0.90;;;;;;;;;;5082179;28;20036;-66
2023/10/15 12:41:53;;;;;;;6.57;1.20;;;;;;;;;;5065151;28;20040;-61
2023/10/15 12:44:19;;;;;;;8.60;1.55;;;;;;;;;;5067490;28;20070;-61
2023/10/15 12:46:45;;;;;;;7.32;1.30;;;;;;;;;;5065525;28;20583;-60
2023/10/15 12:49:12;;;;;;;7.32;1.20;;;;;;;;;;5062684;28;20139;-60
2023/10/15 12:51:38;;;;;;;8.23;1.58;;;;;;;;;;5064768;28;20045;-60
2023/10/15 12:54:06;;;;;;;9.10;1.30;;;;;;;;;;5064556;28;20037;-60
2023/10/15 12:56:33;;;;;;;8.88;1.80;;;;;;;;;;5064482;28;20155;-60
2023/10/15 12:58:59;;;;;;;7.28;1.48;;;;;;;;;;5065892;28;20048;-60
2023/10/15 13:01:26;;;;;;;10.35;1.27;;;;;;;;;;5065951;28;20068;-60
2023/10/15 13:03:52;;;;;;;7.57;1.90;;;;;;;;;;5065808;28;20122;-60
2023/10/15 13:06:19;;;;;;;4.88;1.17;;;;;;;;;;5067341;28;20047;-60
2023/10/15 13:08:46;;;;;;;7.72;1.40;;;;;;;;;;5071089;28;20051;-60
2023/10/15 13:11:13;;;;;;;12.32;1.63;;;;;;;;;;5064651;28;20095;-60
2023/10/15 13:13:39;;;;;;;6.18;1.17;;;;;;;;;;5069053;28;20040;-63
2023/10/15 13:16:08;;;;;;;6.40;1.42;;;;;;;;;;5071778;28;20109;-60
2023/10/15 13:18:38;;;;;;;6.68;1.55;;;;;;;;;;5071262;28;20056;-60
2023/10/15 13:21:06;;;;;;;9.05;1.05;;;;;;;;;;5070296;28;20115;-60
2023/10/15 13:23:32;;;;;;;5.72;1.25;;;;;;;;;;5070786;28;20127;-60
2023/10/15 13:25:58;;;;;;;7.20;1.58;;;;;;;;;;5070562;28;20389;-60
2023/10/15 13:28:24;;;;;;;11.10;1.88;;;;;;;;;;5070846;28;20036;-61
2023/10/15 13:30:50;;;;;;;6.07;1.58;;;;;;;;;;5070776;28;20063;-60
2023/10/15 13:33:17;;;;;;;8.15;1.23;;;;;;;;;;5071600;28;20037;-60
2023/10/15 13:35:43;;;;;;;12.07;1.73;;;;;;;;;;5068811;28;20163;-60
2023/10/15 13:38:10;;;;;;;14.63;1.67;;;;;;;;;;5086585;28;20365;-60
2023/10/15 13:40:38;;;;;;;9.32;1.60;;;;;;;;;;5078680;28;20049;-60
2023/10/15 13:43:05;;;;;;;5.45;1.13;;;;;;;;;;5072836;28;20054;-60
2023/10/15 13:45:31;;;;;;;7.45;1.20;;;;;;;;;;5084675;28;20516;-60
2023/10/15 13:47:57;;;;;;;6.97;1.05;;;;;;;;;;5085256;28;20067;-60
2023/10/15 13:50:23;;;;;;;7.93;1.13;;;;;;;;;;5091352;28;20075;-60
2023/10/15 13:52:52;;;;;;;4.05;1.05;;;;;;;;;;5089801;28;20048;-60
2023/10/15 13:55:19;;;;;;;3.70;0.80;;;;;;;;;;5073285;28;20124;-64
2023/10/15 13:57:45;;;;;;;6.97;0.80;;;;;;;;;;5085936;28;20051;-64
2023/10/15 14:00:12;;;;;;;7.57;1.02;;;;;;;;;;5085338;28;20040;-64
2023/10/15 14:02:42;;;;;;;8.75;1.10;;;;;;;;;;5085712;28;20108;-64
2023/10/15 14:05:08;;;;;;;6.22;1.63;;;;;;;;;;5089732;28;20517;-61
2023/10/15 14:07:37;;;;;;;9.40;1.52;;;;;;;;;;5088485;28;20108;-61
2023/10/15 14:10:04;;;;;;;10.88;1.73;;;;;;;;;;5067605;28;20038;-61
2023/10/15 14:12:31;;;;;;;3.92;1.35;;;;;;;;;;5089100;28;20464;-61
2023/10/15 14:14:58;;;;;;;7.97;1.50;;;;;;;;;;5094878;28;20044;-61
2023/10/15 14:17:25;;;;;;;10.88;2.10;;;;;;;;;;5082756;28;20041;-61
2023/10/15 14:19:51;;;;;;;13.00;1.65;;;;;;;;;;5069997;28;20036;-61
2023/10/15 14:22:20;;;;;;;5.57;1.35;;;;;;;;;;5062765;28;20045;-61
2023/10/15 14:24:47;;;;;;;9.57;1.60;;;;;;;;;;5065900;28;20502;-61
2023/10/15 14:27:14;;;;;;;11.10;1.50;;;;;;;;;;5061844;28;20106;-61
2023/10/15 14:29:40;;;;;;;11.80;1.48;;;;;;;;;;5062978;28;20056;-61
2023/10/15 14:32:07;;;;;;;9.43;1.33;;;;;;;;;;5062123;28;20057;-62
2023/10/15 14:34:33;;;;;;;8.00;1.10;;;;;;;;;;5063259;28;20053;-62
2023/10/15 14:37:02;;;;;;;10.38;1.35;;;;;;;;;;5070895;28;20456;-61
2023/10/15 14:39:29;;;;;;;2.97;0.60;;;;;;;;;;5065296;28;20055;-62
2023/10/15 14:41:55;;;;;;;11.38;1.33;;;;;;;;;;5067895;28;20036;-61
2023/10/15 14:44:22;;;;;;;6.65;1.33;;;;;;;;;;5072421;28;20522;-62
2023/10/15 14:46:49;;;;;;;6.80;1.13;;;;;;;;;;5063268;28;20451;-62
2023/10/15 14:49:15;;;;;;;9.15;1.30;;;;;;;;;;5068165;28;20115;-62
2023/10/15 14:51:41;;;;;;;5.93;1.00;;;;;;;;;;5076578;28;20045;-64
2023/10/15 14:54:08;;;;;;;4.43;1.00;;;;;;;;;;5089551;28;20441;-62
2023/10/15 14:56:35;;;;;;;7.80;1.02;;;;;;;;;;5080619;28;20559;-61
2023/10/15 14:59:01;;;;;;;13.07;1.25;;;;;;;;;;5073621;28;20400;-61
2023/10/15 15:01:27;;;;;;;4.95;0.80;;;;;;;;;;5079615;28;20043;-60
2023/10/15 15:03:53;;;;;;;8.95;1.23;;;;;;;;;;5087336;28;20099;-60
2023/10/15 15:06:19;;;;;;;6.07;0.90;;;;;;;;;;5082551;28;20054;-60
2023/10/15 15:08:45;;;;;;;7.82;1.23;;;;;;;;;;5086120;28;20047;-60
2023/10/15 15:11:12;;;;;;;10.50;1.20;;;;;;;;;;5087831;28;20047;-61
2023/10/15 15:13:38;;;;;;;8.98;1.25;;;;;;;;;;5076709;28;20044;-60